createdAt,value
2023-07-29T00:00:57.232Z,59843.69
2023-07-29T00:06:03.916Z,59883.63
2023-07-29T00:11:06.228Z,59894.13
2023-07-29T00:16:09.697Z,59871.00
2023-07-29T00:21:11.968Z,59898.34
2023-07-29T00:26:14.031Z,59881.50
2023-07-29T00:31:17.406Z,59852.09
2023-07-29T00:36:19.529Z,59873.09
2023-07-29T00:41:23.190Z,59892.03
2023-07-29T00:46:28.878Z,59860.50
2023-07-29T00:51:30.902Z,59894.13
2023-07-29T00:56:33.030Z,59881.50
2023-07-29T01:01:37.719Z,59835.28
2023-07-29T01:06:46.691Z,59873.09
2023-07-29T01:11:57.647Z,59854.19
2023-07-29T01:17:04.743Z,59856.28
2023-07-29T01:22:09.163Z,59828.97
2023-07-29T01:27:12.540Z,59860.50
2023-07-29T01:32:20.403Z,59885.72
2023-07-29T01:37:27.982Z,59877.31
2023-07-29T01:42:32.445Z,59856.28
2023-07-29T01:47:34.537Z,59854.19
2023-07-29T01:52:37.026Z,59868.91
2023-07-29T01:57:40.387Z,59887.81
2023-07-29T02:02:42.462Z,59864.69
2023-07-29T02:07:44.668Z,59843.69
2023-07-29T02:12:47.963Z,59826.84
2023-07-29T02:17:51.733Z,59847.88
2023-07-29T02:22:53.912Z,59879.41
2023-07-29T02:27:57.341Z,59885.72
2023-07-29T02:33:00.860Z,59900.44
2023-07-29T02:38:03.042Z,59852.09
2023-07-29T02:43:06.551Z,59873.09
2023-07-29T02:48:08.580Z,59873.09
2023-07-29T02:53:10.592Z,59875.22
2023-07-29T02:58:13.919Z,59868.91
2023-07-29T03:03:16.068Z,59887.81
2023-07-29T03:08:18.199Z,59898.34
2023-07-29T03:13:21.660Z,59883.63
2023-07-29T03:18:23.658Z,59910.94
2023-07-29T03:23:25.644Z,59902.53
2023-07-29T03:28:30.969Z,59906.75
2023-07-29T03:33:33.199Z,59913.03
2023-07-29T03:38:36.499Z,59877.31
2023-07-29T03:43:40.176Z,59894.13
2023-07-29T03:48:42.241Z,59879.41
2023-07-29T03:53:44.273Z,59915.16
2023-07-29T03:58:49.316Z,59868.91
2023-07-29T04:03:53.255Z,59885.72
2023-07-29T04:08:55.686Z,59875.22
2023-07-29T04:13:59.001Z,59885.72
2023-07-29T04:19:00.996Z,59894.13
2023-07-29T04:24:03.097Z,59873.09
2023-07-29T04:29:06.509Z,59868.91
2023-07-29T04:34:08.513Z,59856.28
2023-07-29T04:39:10.630Z,59873.09
2023-07-29T04:44:14.035Z,59889.94
2023-07-29T04:49:16.072Z,59881.50
2023-07-29T04:54:18.126Z,59885.72
2023-07-29T04:59:21.498Z,59877.31
2023-07-29T05:04:24.132Z,59879.41
2023-07-29T05:09:28.750Z,59860.50
2023-07-29T05:14:32.543Z,59868.91
2023-07-29T05:19:34.575Z,59873.09
2023-07-29T05:24:36.706Z,59873.09
2023-07-29T05:29:40.128Z,59856.28
2023-07-29T05:34:42.185Z,59839.47
2023-07-29T05:39:44.244Z,59833.16
2023-07-29T05:44:48.670Z,59841.56
2023-07-29T05:49:50.769Z,59854.19
2023-07-29T05:54:52.766Z,59833.16
2023-07-29T05:59:56.246Z,59852.09
2023-07-29T06:04:58.470Z,59839.47
2023-07-29T06:10:00.574Z,59822.66
2023-07-29T06:15:04.783Z,59833.16
2023-07-29T06:20:07.635Z,59843.69
2023-07-29T06:25:09.731Z,59856.28
2023-07-29T06:30:13.258Z,59831.06
2023-07-29T06:35:15.435Z,59852.09
2023-07-29T06:40:17.648Z,59801.63
2023-07-29T06:45:21.071Z,59826.84
2023-07-29T06:50:23.099Z,59831.06
2023-07-29T06:55:25.096Z,59791.13
2023-07-29T07:00:28.582Z,59776.41
2023-07-29T07:05:30.622Z,59810.03
2023-07-29T07:10:34.814Z,59807.94
2023-07-29T07:15:38.215Z,59826.84
2023-07-29T07:20:40.400Z,59824.75
2023-07-29T07:25:43.508Z,59826.84
2023-07-29T07:30:47.136Z,59780.63
2023-07-29T07:35:49.188Z,59810.03
2023-07-29T07:40:56.099Z,59801.63
2023-07-29T07:46:03.041Z,59784.81
2023-07-29T07:51:11.290Z,59770.09
2023-07-29T07:56:13.578Z,59786.91
2023-07-29T08:01:17.032Z,59791.13
2023-07-29T08:06:19.033Z,59763.78
2023-07-29T08:11:21.123Z,59818.44
2023-07-29T08:16:24.519Z,59822.66
2023-07-29T08:21:27.697Z,59843.69
2023-07-29T08:26:29.693Z,59814.25
2023-07-29T08:31:35.202Z,59799.53
2023-07-29T08:36:37.634Z,59812.16
2023-07-29T08:41:46.739Z,59816.34
2023-07-29T08:46:50.345Z,59799.53
2023-07-29T08:51:54.735Z,59835.28
2023-07-29T08:56:57.311Z,59780.63
2023-07-29T09:02:00.970Z,59793.22
2023-07-29T09:07:03.859Z,59778.50
2023-07-29T09:12:07.406Z,59793.22
2023-07-29T09:17:11.263Z,59799.53
2023-07-29T09:22:19.206Z,59814.25
2023-07-29T09:27:28.363Z,59801.63
2023-07-29T09:32:31.818Z,59803.75
2023-07-29T09:37:33.845Z,59795.34
2023-07-29T09:42:35.856Z,59770.09
2023-07-29T09:47:39.758Z,59789.03
2023-07-29T09:52:43.598Z,59780.63
2023-07-29T09:57:46.242Z,59801.63
2023-07-29T10:02:50.718Z,59772.22
2023-07-29T10:07:53.330Z,59803.75
2023-07-29T10:12:57.497Z,59780.63
2023-07-29T10:18:02.276Z,59793.22
2023-07-29T10:23:08.186Z,59757.50
2023-07-29T10:28:13.662Z,59755.38
2023-07-29T10:33:17.508Z,59776.41
2023-07-29T10:38:22.209Z,59772.22
2023-07-29T10:43:26.564Z,59707.03
2023-07-29T10:48:43.022Z,59728.06
2023-07-29T10:53:45.142Z,59721.75
2023-07-29T10:58:47.687Z,59746.97
2023-07-29T11:04:26.421Z,59744.88
2023-07-29T11:09:40.820Z,59730.16
2023-07-29T11:14:42.882Z,59746.97
2023-07-29T11:19:47.293Z,59763.78
2023-07-29T11:24:49.284Z,59759.59
2023-07-29T11:29:51.398Z,59759.59
2023-07-29T11:34:54.797Z,59728.06
2023-07-29T11:39:56.826Z,59793.22
2023-07-29T11:45:01.722Z,59791.13
2023-07-29T11:50:06.974Z,59822.66
2023-07-29T11:55:09.274Z,59814.25
2023-07-29T12:00:13.584Z,59816.34
2023-07-29T12:05:20.054Z,59801.63
2023-07-29T12:10:22.984Z,59818.44
2023-07-29T12:15:26.355Z,59822.66
2023-07-29T12:20:30.991Z,59780.63
2023-07-29T12:25:33.154Z,59772.22
2023-07-29T12:30:35.690Z,59772.22
2023-07-29T12:35:39.579Z,59774.31
2023-07-29T12:40:43.279Z,59784.81
2023-07-29T12:45:45.493Z,59795.34
2023-07-29T12:50:49.025Z,59801.63
2023-07-29T12:55:51.078Z,59805.84
2023-07-29T13:00:53.694Z,59791.13
2023-07-29T13:05:57.174Z,59793.22
2023-07-29T13:10:59.268Z,59776.41
2023-07-29T13:16:02.735Z,59799.53
2023-07-29T13:21:06.341Z,59849.97
2023-07-29T13:26:08.476Z,59828.97
2023-07-29T13:31:10.504Z,59822.66
2023-07-29T13:36:13.891Z,59768.00
2023-07-29T13:41:15.941Z,59797.44
2023-07-29T13:46:18.137Z,59746.97
2023-07-29T13:51:21.618Z,59780.63
2023-07-29T13:56:23.701Z,59717.56
2023-07-29T14:01:25.809Z,59759.59
2023-07-29T14:06:45.238Z,59763.78
2023-07-29T14:11:48.752Z,59734.38
2023-07-29T14:16:50.829Z,59751.19
2023-07-29T14:21:54.427Z,59759.59
2023-07-29T14:26:56.481Z,59734.38
2023-07-29T14:31:58.557Z,59728.06
2023-07-29T14:37:01.989Z,59730.16
2023-07-29T14:42:04.526Z,59683.91
2023-07-29T14:47:07.325Z,59734.38
2023-07-29T14:52:10.858Z,59692.31
2023-07-29T14:57:12.889Z,59732.28
2023-07-29T15:02:15.006Z,59746.97
2023-07-29T15:07:18.406Z,59725.97
2023-07-29T15:12:20.428Z,59725.97
2023-07-29T15:17:22.547Z,59713.34
2023-07-29T15:22:26.036Z,59730.16
2023-07-29T15:27:29.148Z,59742.78
2023-07-29T15:32:31.208Z,59805.84
2023-07-29T15:37:34.561Z,59797.44
2023-07-29T15:42:36.581Z,59801.63
2023-07-29T15:47:38.708Z,59780.63
2023-07-29T15:52:44.892Z,59784.81
2023-07-29T15:57:47.269Z,59824.75
2023-07-29T16:02:49.705Z,59801.63
2023-07-29T16:07:54.474Z,59831.06
2023-07-29T16:12:56.607Z,59818.44
2023-07-29T16:18:00.760Z,59831.06
2023-07-29T16:23:05.106Z,59845.78
2023-07-29T16:28:08.461Z,59826.84
2023-07-29T16:33:10.669Z,59797.44
2023-07-29T16:38:14.125Z,59801.63
2023-07-29T16:43:16.124Z,59839.47
2023-07-29T16:48:18.165Z,59818.44
2023-07-29T16:53:21.510Z,59801.63
2023-07-29T16:58:23.629Z,59831.06
2023-07-29T17:03:25.695Z,59814.25
2023-07-29T17:08:29.148Z,59763.78
2023-07-29T17:13:31.185Z,59746.97
2023-07-29T17:18:34.016Z,59789.03
2023-07-29T17:23:37.387Z,59761.69
2023-07-29T17:28:39.478Z,59801.63
2023-07-29T17:33:43.145Z,59778.50
2023-07-29T17:38:46.580Z,59816.34
2023-07-29T17:43:50.837Z,59780.63
2023-07-29T17:48:52.910Z,59789.03
2023-07-29T17:53:56.410Z,59831.06
2023-07-29T17:58:58.418Z,59774.31
2023-07-29T18:04:00.987Z,59803.75
2023-07-29T18:09:04.495Z,59833.16
2023-07-29T18:14:06.549Z,59826.84
2023-07-29T18:19:08.798Z,59835.28
2023-07-29T18:24:12.166Z,59831.06
2023-07-29T18:29:14.459Z,59839.47
2023-07-29T18:34:16.515Z,59818.44
2023-07-29T18:39:19.945Z,59782.72
2023-07-29T18:44:21.994Z,59858.41
2023-07-29T18:49:24.692Z,59805.84
2023-07-29T18:54:28.136Z,59831.06
2023-07-29T18:59:30.248Z,59837.38
2023-07-29T19:04:32.336Z,59816.34
2023-07-29T19:09:35.817Z,59835.28
2023-07-29T19:14:37.882Z,59839.47
2023-07-29T19:19:39.935Z,59814.25
2023-07-29T19:24:43.547Z,59843.69
2023-07-29T19:29:46.068Z,59856.28
2023-07-29T19:34:55.121Z,59864.69
2023-07-29T19:39:58.546Z,59810.03
2023-07-29T19:45:00.611Z,59831.06
2023-07-29T19:50:02.735Z,59858.41
2023-07-29T19:55:07.506Z,59841.56
2023-07-29T20:00:11.149Z,59875.22
2023-07-29T20:05:13.230Z,59843.69
2023-07-29T20:10:16.793Z,59854.19
2023-07-29T20:15:19.432Z,59847.88
2023-07-29T20:20:21.493Z,59858.41
2023-07-29T20:25:24.946Z,59862.59
2023-07-29T20:30:28.180Z,59843.69
2023-07-29T20:35:30.306Z,59864.69
2023-07-29T20:40:33.756Z,59839.47
2023-07-29T20:45:36.366Z,59875.22
2023-07-29T20:50:39.924Z,59875.22
2023-07-29T20:55:43.688Z,59883.63
2023-07-29T21:00:46.513Z,59871.00
2023-07-29T21:05:49.148Z,59866.81
2023-07-29T21:10:54.022Z,59877.31
2023-07-29T21:15:57.642Z,59856.28
2023-07-29T21:20:59.697Z,59847.88
2023-07-29T21:26:03.069Z,59889.94
2023-07-29T21:31:05.171Z,59894.13
2023-07-29T21:36:07.371Z,59866.81
2023-07-29T21:41:10.876Z,59868.91
2023-07-29T21:46:13.366Z,59860.50
2023-07-29T21:51:15.472Z,59849.97
2023-07-29T21:56:18.869Z,59826.84
2023-07-29T22:01:20.936Z,59818.44
2023-07-29T22:06:23.136Z,59871.00
2023-07-29T22:11:26.616Z,59856.28
2023-07-29T22:16:28.743Z,59831.06
2023-07-29T22:21:30.799Z,59860.50
2023-07-29T22:26:34.278Z,59868.91
2023-07-29T22:31:36.614Z,59843.69
2023-07-29T22:36:38.883Z,59860.50
2023-07-29T22:41:42.247Z,59847.88
2023-07-29T22:46:46.404Z,59847.88
2023-07-29T22:51:48.433Z,59822.66
2023-07-29T22:56:51.845Z,59871.00
2023-07-29T23:01:54.554Z,59854.19
2023-07-29T23:06:58.545Z,59847.88
2023-07-29T23:12:02.004Z,59847.88
2023-07-29T23:17:04.051Z,59835.28
2023-07-29T23:22:06.274Z,59854.19
2023-07-29T23:27:09.641Z,59854.19
2023-07-29T23:32:11.659Z,59835.28
2023-07-29T23:37:13.658Z,59831.06
2023-07-29T23:42:17.068Z,59843.69
2023-07-29T23:47:19.039Z,59849.97
2023-07-29T23:52:21.104Z,59797.44
2023-07-29T23:57:24.477Z,59822.66
